Nearby METAR Reports

 

KDAA - Fort Belvoir/Dav, Virginia, USA
Distance from station: SE 9mi, 15km
Updated: Sun, 17-Oct-2021 9:56pm EDT
Few Clouds
Few Clouds
 Wind from calm
Wind: Calm
Temperature: 46°F , 8°C
Dew Point: 43°F , 6°C
Humidity: 87%
Barometer: 30.01 inHg , 1016.3 hPa
Clouds: Few Clouds
Visibility: 10 miles , 16 km
Cloud details: Few Clouds 11000 ft
2021/10/18 01:56 KDAA 180156Z AUTO 00000KT 10SM FEW110 08/06 A3001 RMK AO2 SLP165 T00800061 $
KIAD - Wash Dc/Dulles, Virginia, USA
Distance from station: NW 12mi, 19km
Updated: Sun, 17-Oct-2021 9:52pm EDT
Mostly cloudy
Mostly cloudy
 Wind from WSW
Wind: WSW 3 mph , 6 km/h
Temperature: 52°F , 11°C
Dew Point: 39°F , 4°C
Humidity: 62%
Barometer: 30.00 inHg , 1015.9 hPa
Clouds: Mostly cloudy
Visibility: 10 miles , 16 km
Cloud details: Mostly cloudy 11000 ft
2021/10/18 01:52 KIAD 180152Z 24003KT 10SM BKN110 11/04 A3000 RMK AO2 SLP160 T01060039 $
 
KHEF - Manassas Muni, Virginia, USA
Distance from station: WSW 14mi, 22km
Updated: Sun, 17-Oct-2021 9:56pm EDT
Overcast
Overcast
 Wind from calm
Wind: Calm
Temperature: 46°F , 8°C
Dew Point: 43°F , 6°C
Humidity: 87%
Barometer: 30.02 inHg , 1016.6 hPa
Clouds: Overcast
Visibility: 10 miles , 16 km
Cloud details: Partly cloudy 7000 ft
Mostly cloudy 9000 ft
Overcast 12000 ft
2021/10/18 01:56 KHEF 180156Z 00000KT 10SM SCT070 BKN090 OVC120 08/06 A3002 RMK AO2 SLP173 T00830061
KDCA - Washington/Natl, Washington D.c., USA
Distance from station: ENE 14mi, 23km
Updated: Sun, 17-Oct-2021 9:52pm EDT
Mostly cloudy
Mostly cloudy
 Wind from W
Wind: W 8 mph , 13 km/h
Temperature: 55°F , 13°C
Dew Point: 37°F , 3°C
Humidity: 51%
Barometer: 30.01 inHg , 1016.3 hPa
Clouds: Mostly cloudy
Visibility: 10 miles , 16 km
Cloud details: Few Clouds 9500 ft
Mostly cloudy 10000 ft
2021/10/18 01:52 KDCA 180152Z 27007KT 10SM FEW095 BKN100 13/03 A3001 RMK AO2 SLP162 T01330028 $
 
KNYG - Quantico Mcaf, Virginia, USA
Distance from station: S 21mi, 34km
Updated: Sun, 17-Oct-2021 9:56pm EDT
Clear
Clear
 Wind from WNW
Wind: WNW 8 mph , 13 km/h
Temperature: 52°F , 11°C
Dew Point: 45°F , 7°C
Humidity: 77%
Barometer: 30.03 inHg , 1016.9 hPa
Clouds: Clear
Visibility: 10 miles , 16 km
2021/10/18 01:56 KNYG 180156Z AUTO 29007KT 10SM CLR 11/07 A3003 RMK AO2 SLP169 T01060072 $
KADW - Andrews Afb, Maryland, USA
Distance from station: E 23mi, 37km
Updated: Sun, 17-Oct-2021 9:56pm EDT
Clear
Clear
 Wind from W
Wind: W 8 mph , 13 km/h
Temperature: 54°F , 12°C
Dew Point: 37°F , 3°C
Humidity: 54%
Barometer: 29.98 inHg , 1015.2 hPa
Clouds: Clear
Visibility: 10 miles , 16 km
2021/10/18 01:56 KADW 180156Z AUTO 26007KT 10SM CLR 12/03 A2998 RMK AO2 SLP159 T01160034 $
 
KJYO - Leesburg/Godfrey, Virginia, USA
Distance from station: NW 23mi, 37km
Updated: Sun, 17-Oct-2021 10:15pm EDT
Overcast
Overcast
 Wind from calm
Wind: Calm
Temperature: 52°F , 11°C
Dew Point: 43°F , 6°C
Humidity: 72%
Barometer: 30.03 inHg , 1016.9 hPa
Clouds: Overcast
Visibility: 10 miles , 16 km
Cloud details: Mostly cloudy 6000 ft
Mostly cloudy 8000 ft
Overcast 11000 ft
2021/10/18 02:15 KJYO 180215Z AUTO 00000KT 10SM BKN060 BKN080 OVC110 11/06 A3003 RMK AO2
KCGS - College Park, Maryland, USA
Distance from station: ENE 24mi, 38km
Updated: Sun, 17-Oct-2021 10:15pm EDT
Clear
Clear
 Wind from calm
Wind: Calm
Temperature: 54°F , 12°C
Dew Point: 36°F , 2°C
Humidity: 51%
Barometer: 30.00 inHg , 1015.9 hPa
Clouds: Clear
Visibility: 10 miles , 16 km
2021/10/18 02:15 KCGS 180215Z AUTO 00000KT 10SM CLR 12/02 A3000 RMK AO1 T01170016
 
KGAI - Gaithersburg, Maryland, USA
Distance from station: NNE 26mi, 41km
Updated: Sun, 17-Oct-2021 9:56pm EDT
Clear
Clear
 Wind from W
Wind: W 8 mph , 13 km/h
Temperature: 50°F , 10°C
Wind Chill: 47°F , 8°C
Dew Point: 37°F , 3°C
Humidity: 62%
Barometer: 30.00 inHg , 1015.9 hPa
Clouds: Clear
Visibility: 10 miles , 16 km
2021/10/18 01:56 KGAI 180156Z AUTO 28007KT 10SM CLR 10/03 A3000 RMK AO2 SLP173 T01000033 PNO $
KHWY - Warrenton, Virginia, USA
Distance from station: SW 28mi, 44km
Updated: Sun, 17-Oct-2021 10:15pm EDT
Overcast
Overcast
 Wind from calm
Wind: Calm
Temperature: 46°F , 8°C
Dew Point: 45°F , 7°C
Humidity: 93%
Barometer: 30.01 inHg , 1016.3 hPa
Clouds: Overcast
Visibility: 10 miles , 16 km
Cloud details: Mostly cloudy 8000 ft
Overcast 11000 ft
2021/10/18 02:15 KHWY 180215Z AUTO 00000KT 10SM BKN080 OVC110 08/07 A3001 RMK AO2 T00810067
 
KRMN - Stafford Regnl, Virginia, USA
Distance from station: SSW 29mi, 47km
Updated: Sun, 17-Oct-2021 10:15pm EDT
Clear
Clear
 Wind from calm
Wind: Calm
Temperature: 48°F , 9°C
Dew Point: 41°F , 5°C
Humidity: 76%
Barometer: 30.06 inHg , 1017.9 hPa
Clouds: Clear
Visibility: 10 miles , 16 km
2021/10/18 02:15 KRMN 180215Z AUTO 00000KT 10SM CLR 09/05 A3006 RMK AO2 T00880051
KFME - Fort Meade, Maryland, USA
Distance from station: NE 34mi, 55km
Updated: Sun, 17-Oct-2021 10:15pm EDT
Partly cloudy
Partly cloudy
 Wind from calm
Wind: Calm
Temperature: 45°F , 7°C
Dew Point: 43°F , 6°C
Humidity: 93%
Barometer: 30.02 inHg , 1016.6 hPa
Clouds: Partly cloudy
Visibility: 10 miles , 16 km
Cloud details: Partly cloudy 10000 ft
2021/10/18 02:15 KFME 180215Z AUTO 00000KT 10SM SCT100 07/06 A3002 RMK AO1
 
KCJR - Culpeper, Virginia, USA
Distance from station: WSW 36mi, 58km
Updated: Sun, 17-Oct-2021 10:15pm EDT
Overcast
Overcast
 Wind from calm
Wind: Calm
Temperature: 46°F , 8°C
Dew Point: 43°F , 6°C
Humidity: 87%
Barometer: 30.03 inHg , 1016.9 hPa
Clouds: Overcast
Visibility: 10 miles , 16 km
Cloud details: Mostly cloudy 8000 ft
Overcast 10000 ft
2021/10/18 02:15 KCJR 180215Z AUTO 00000KT 10SM BKN080 OVC100 08/06 A3003 RMK AO2 T00830056
KEZF - Fredericksb/Shan, Virginia, USA
Distance from station: SSW 38mi, 62km
Updated: Sun, 17-Oct-2021 10:15pm EDT
Clear
Clear
 Wind from SW
Wind: SW 5 mph , 7 km/h
Temperature: 50°F , 10°C
Wind Chill: 48°F , 9°C
Dew Point: 41°F , 5°C
Humidity: 71%
Barometer: 30.01 inHg , 1016.3 hPa
Clouds: Clear
Visibility: 10 miles , 16 km
2021/10/18 02:15 KEZF 180215Z AUTO 23004KT 10SM CLR 10/05 A3001 RMK AO2 T01030051
 
KBWI - Balto/Wash Intl, Maryland, USA
Distance from station: NE 41mi, 66km
Updated: Sun, 17-Oct-2021 9:54pm EDT
Partly cloudy
Partly cloudy
 Wind from WSW
Wind: WSW 7 mph , 11 km/h
Temperature: 52°F , 11°C
Dew Point: 37°F , 3°C
Humidity: 58%
Barometer: 29.97 inHg , 1014.9 hPa
Clouds: Partly cloudy
Visibility: 10 miles , 16 km
Cloud details: Partly cloudy 11000 ft
2021/10/18 01:54 KBWI 180154Z 25006KT 10SM SCT110 11/03 A2997 RMK AO2 SLP149 T01060033
KFDK - Frederick, Maryland, USA
Distance from station: N 42mi, 68km
Updated: Sun, 17-Oct-2021 10:15pm EDT
Mostly cloudy
Mostly cloudy
 Wind from WNW
Wind: WNW 10 mph , 17 km/h
Temperature: 54°F , 12°C
Dew Point: 39°F , 4°C
Humidity: 58%
Barometer: 30.01 inHg , 1016.3 hPa
Clouds: Mostly cloudy
Visibility: 10 miles , 16 km
Cloud details: Mostly cloudy 9000 ft
2021/10/18 02:15 KFDK 180215Z AUTO 29009KT 10SM BKN090 12/04 A3001 RMK AO2
 
KNAK - Annapolis/Naval, Maryland, USA
Distance from station: ENE 45mi, 73km
Updated: Sun, 17-Oct-2021 9:54pm EDT
Clear
Clear
 Wind from W
Wind: W 6 mph , 9 km/h
Temperature: 55°F , 13°C
Dew Point: 39°F , 4°C
Humidity: 55%
Barometer: 29.98 inHg , 1015.2 hPa
Clouds: Clear
Visibility: 10 miles , 16 km
2021/10/18 01:54 KNAK 180154Z AUTO 28005KT 10SM CLR 13/04 A2998 RMK AO2 SLP153 T01330044